sensor_id;sensor_type;location;lat;lon;timestamp;P1;durP1;ratioP1;P2;durP2;ratioP2
40945;SDS011;55635;50.264;11.918;2022-07-29T00:01:21;9.70;;;4.60;;
40945;SDS011;55635;50.264;11.918;2022-07-29T00:04:02;10.80;;;4.50;;
40945;SDS011;55635;50.264;11.918;2022-07-29T00:06:43;8.98;;;4.13;;
40945;SDS011;55635;50.264;11.918;2022-07-29T00:09:24;10.02;;;5.00;;
40945;SDS011;55635;50.264;11.918;2022-07-29T00:12:06;8.73;;;4.45;;
40945;SDS011;55635;50.264;11.918;2022-07-29T00:14:47;7.10;;;4.47;;
40945;SDS011;55635;50.264;11.918;2022-07-29T00:17:28;9.50;;;4.75;;
40945;SDS011;55635;50.264;11.918;2022-07-29T00:20:09;6.07;;;4.40;;
40945;SDS011;55635;50.264;11.918;2022-07-29T00:22:50;12.50;;;4.97;;
40945;SDS011;55635;50.264;11.918;2022-07-29T00:25:32;8.40;;;4.53;;
40945;SDS011;55635;50.264;11.918;2022-07-29T00:28:13;9.95;;;4.82;;
40945;SDS011;55635;50.264;11.918;2022-07-29T00:30:54;7.10;;;4.53;;
40945;SDS011;55635;50.264;11.918;2022-07-29T00:33:35;10.45;;;4.70;;
40945;SDS011;55635;50.264;11.918;2022-07-29T00:36:16;8.60;;;4.90;;
40945;SDS011;55635;50.264;11.918;2022-07-29T00:38:57;7.57;;;4.53;;
40945;SDS011;55635;50.264;11.918;2022-07-29T00:41:38;7.22;;;4.95;;
40945;SDS011;55635;50.264;11.918;2022-07-29T00:44:19;8.38;;;4.57;;
40945;SDS011;55635;50.264;11.918;2022-07-29T00:47:00;7.63;;;4.55;;
40945;SDS011;55635;50.264;11.918;2022-07-29T00:49:41;9.98;;;4.97;;
40945;SDS011;55635;50.264;11.918;2022-07-29T00:52:23;7.50;;;5.00;;
40945;SDS011;55635;50.264;11.918;2022-07-29T00:55:05;9.82;;;5.05;;
40945;SDS011;55635;50.264;11.918;2022-07-29T00:57:49;6.35;;;4.50;;
40945;SDS011;55635;50.264;11.918;2022-07-29T01:00:31;10.05;;;4.47;;
40945;SDS011;55635;50.264;11.918;2022-07-29T01:03:12;9.23;;;4.50;;
40945;SDS011;55635;50.264;11.918;2022-07-29T01:05:53;13.45;;;5.13;;
40945;SDS011;55635;50.264;11.918;2022-07-29T01:08:35;7.30;;;4.28;;
40945;SDS011;55635;50.264;11.918;2022-07-29T01:11:16;11.63;;;4.60;;
40945;SDS011;55635;50.264;11.918;2022-07-29T01:13:59;5.63;;;4.43;;
40945;SDS011;55635;50.264;11.918;2022-07-29T01:20:20;10.60;;;4.30;;
40945;SDS011;55635;50.264;11.918;2022-07-29T01:23:28;7.32;;;4.47;;
40945;SDS011;55635;50.264;11.918;2022-07-29T01:26:45;9.10;;;4.60;;
40945;SDS011;55635;50.264;11.918;2022-07-29T01:29:49;5.78;;;3.83;;
40945;SDS011;55635;50.264;11.918;2022-07-29T01:32:37;8.93;;;4.22;;
40945;SDS011;55635;50.264;11.918;2022-07-29T01:35:26;6.88;;;4.22;;
40945;SDS011;55635;50.264;11.918;2022-07-29T01:38:17;9.13;;;3.78;;
40945;SDS011;55635;50.264;11.918;2022-07-29T01:41:05;6.90;;;4.05;;
40945;SDS011;55635;50.264;11.918;2022-07-29T01:43:56;7.57;;;3.97;;
40945;SDS011;55635;50.264;11.918;2022-07-29T01:46:56;6.40;;;4.35;;
40945;SDS011;55635;50.264;11.918;2022-07-29T01:49:43;8.82;;;4.07;;
40945;SDS011;55635;50.264;11.918;2022-07-29T01:52:36;8.73;;;4.30;;
40945;SDS011;55635;50.264;11.918;2022-07-29T01:55:27;8.80;;;3.70;;
40945;SDS011;55635;50.264;11.918;2022-07-29T01:58:12;7.57;;;4.38;;
40945;SDS011;55635;50.264;11.918;2022-07-29T02:00:58;9.48;;;4.03;;
40945;SDS011;55635;50.264;11.918;2022-07-29T02:03:45;6.30;;;3.97;;
40945;SDS011;55635;50.264;11.918;2022-07-29T02:06:27;8.95;;;4.45;;
40945;SDS011;55635;50.264;11.918;2022-07-29T02:09:12;8.27;;;4.43;;
40945;SDS011;55635;50.264;11.918;2022-07-29T02:11:55;8.50;;;4.00;;
40945;SDS011;55635;50.264;11.918;2022-07-29T02:14:38;11.73;;;5.05;;
40945;SDS011;55635;50.264;11.918;2022-07-29T02:17:26;6.07;;;4.30;;
40945;SDS011;55635;50.264;11.918;2022-07-29T02:20:21;9.82;;;4.13;;
40945;SDS011;55635;50.264;11.918;2022-07-29T02:23:05;5.38;;;4.00;;
40945;SDS011;55635;50.264;11.918;2022-07-29T02:25:52;9.20;;;4.47;;
40945;SDS011;55635;50.264;11.918;2022-07-29T02:28:36;8.32;;;4.35;;
40945;SDS011;55635;50.264;11.918;2022-07-29T02:31:20;10.35;;;4.22;;
40945;SDS011;55635;50.264;11.918;2022-07-29T02:34:05;7.88;;;3.97;;
40945;SDS011;55635;50.264;11.918;2022-07-29T02:36:48;8.95;;;4.18;;
40945;SDS011;55635;50.264;11.918;2022-07-29T02:39:31;7.47;;;3.90;;
40945;SDS011;55635;50.264;11.918;2022-07-29T02:42:15;5.63;;;3.65;;
40945;SDS011;55635;50.264;11.918;2022-07-29T02:44:58;9.73;;;3.90;;
40945;SDS011;55635;50.264;11.918;2022-07-29T02:47:41;6.18;;;4.40;;
40945;SDS011;55635;50.264;11.918;2022-07-29T02:50:32;7.47;;;3.87;;
40945;SDS011;55635;50.264;11.918;2022-07-29T02:53:18;6.32;;;4.32;;
40945;SDS011;55635;50.264;11.918;2022-07-29T02:56:06;7.40;;;3.92;;
40945;SDS011;55635;50.264;11.918;2022-07-29T02:58:54;7.30;;;4.03;;
40945;SDS011;55635;50.264;11.918;2022-07-29T03:01:39;7.07;;;4.03;;
40945;SDS011;55635;50.264;11.918;2022-07-29T03:04:24;10.30;;;3.80;;
40945;SDS011;55635;50.264;11.918;2022-07-29T03:07:08;8.70;;;3.95;;
40945;SDS011;55635;50.264;11.918;2022-07-29T03:09:53;7.63;;;3.40;;
40945;SDS011;55635;50.264;11.918;2022-07-29T03:12:35;7.03;;;3.53;;
40945;SDS011;55635;50.264;11.918;2022-07-29T03:15:16;8.93;;;3.75;;
40945;SDS011;55635;50.264;11.918;2022-07-29T03:17:59;6.25;;;3.70;;
40945;SDS011;55635;50.264;11.918;2022-07-29T03:20:40;4.97;;;3.03;;
40945;SDS011;55635;50.264;11.918;2022-07-29T03:23:22;8.95;;;3.92;;
40945;SDS011;55635;50.264;11.918;2022-07-29T03:26:06;9.68;;;3.88;;
40945;SDS011;55635;50.264;11.918;2022-07-29T03:28:47;5.78;;;3.38;;
40945;SDS011;55635;50.264;11.918;2022-07-29T03:31:28;10.45;;;4.38;;
40945;SDS011;55635;50.264;11.918;2022-07-29T03:34:09;6.82;;;3.33;;
40945;SDS011;55635;50.264;11.918;2022-07-29T03:36:50;8.55;;;3.83;;
40945;SDS011;55635;50.264;11.918;2022-07-29T03:39:31;6.63;;;3.15;;
40945;SDS011;55635;50.264;11.918;2022-07-29T03:42:19;9.57;;;3.60;;
40945;SDS011;55635;50.264;11.918;2022-07-29T03:45:05;8.43;;;3.72;;
40945;SDS011;55635;50.264;11.918;2022-07-29T03:47:59;6.95;;;4.53;;
40945;SDS011;55635;50.264;11.918;2022-07-29T03:50:47;5.68;;;3.63;;
40945;SDS011;55635;50.264;11.918;2022-07-29T03:53:30;5.43;;;3.78;;
40945;SDS011;55635;50.264;11.918;2022-07-29T03:56:12;7.70;;;3.72;;
40945;SDS011;55635;50.264;11.918;2022-07-29T03:58:57;7.50;;;4.05;;
40945;SDS011;55635;50.264;11.918;2022-07-29T04:01:38;7.75;;;3.60;;
40945;SDS011;55635;50.264;11.918;2022-07-29T04:04:22;6.13;;;3.38;;
40945;SDS011;55635;50.264;11.918;2022-07-29T04:07:03;9.15;;;3.65;;
40945;SDS011;55635;50.264;11.918;2022-07-29T04:09:45;7.97;;;3.13;;
40945;SDS011;55635;50.264;11.918;2022-07-29T04:12:26;4.82;;;3.15;;
40945;SDS011;55635;50.264;11.918;2022-07-29T04:15:07;8.43;;;3.03;;
40945;SDS011;55635;50.264;11.918;2022-07-29T04:17:48;5.07;;;3.70;;
40945;SDS011;55635;50.264;11.918;2022-07-29T04:20:29;6.53;;;3.53;;
40945;SDS011;55635;50.264;11.918;2022-07-29T04:23:13;7.18;;;3.63;;
40945;SDS011;55635;50.264;11.918;2022-07-29T04:25:54;6.25;;;3.40;;
40945;SDS011;55635;50.264;11.918;2022-07-29T04:28:35;6.82;;;3.47;;
40945;SDS011;55635;50.264;11.918;2022-07-29T04:31:19;5.40;;;3.60;;
40945;SDS011;55635;50.264;11.918;2022-07-29T04:34:01;6.82;;;3.30;;
40945;SDS011;55635;50.264;11.918;2022-07-29T04:36:42;8.82;;;3.83;;
40945;SDS011;55635;50.264;11.918;2022-07-29T04:39:23;5.03;;;3.20;;
40945;SDS011;55635;50.264;11.918;2022-07-29T04:42:04;4.78;;;3.67;;
40945;SDS011;55635;50.264;11.918;2022-07-29T04:44:45;3.65;;;3.35;;
40945;SDS011;55635;50.264;11.918;2022-07-29T04:47:26;6.88;;;3.60;;
40945;SDS011;55635;50.264;11.918;2022-07-29T04:50:08;6.78;;;3.85;;
40945;SDS011;55635;50.264;11.918;2022-07-29T04:52:49;4.43;;;3.50;;
40945;SDS011;55635;50.264;11.918;2022-07-29T04:55:30;5.68;;;3.40;;
40945;SDS011;55635;50.264;11.918;2022-07-29T04:58:12;7.20;;;3.88;;
40945;SDS011;55635;50.264;11.918;2022-07-29T05:00:53;7.45;;;3.50;;
40945;SDS011;55635;50.264;11.918;2022-07-29T05:03:34;8.68;;;3.78;;
40945;SDS011;55635;50.264;11.918;2022-07-29T05:06:15;6.43;;;3.85;;
40945;SDS011;55635;50.264;11.918;2022-07-29T05:08:56;8.90;;;3.65;;
40945;SDS011;55635;50.264;11.918;2022-07-29T05:11:37;5.47;;;3.00;;
40945;SDS011;55635;50.264;11.918;2022-07-29T05:14:18;7.22;;;3.40;;
40945;SDS011;55635;50.264;11.918;2022-07-29T05:17:00;6.18;;;3.42;;
40945;SDS011;55635;50.264;11.918;2022-07-29T05:19:41;5.95;;;3.13;;
40945;SDS011;55635;50.264;11.918;2022-07-29T05:22:22;7.85;;;3.92;;
40945;SDS011;55635;50.264;11.918;2022-07-29T05:25:03;6.28;;;3.42;;
40945;SDS011;55635;50.264;11.918;2022-07-29T05:27:45;5.28;;;3.08;;
40945;SDS011;55635;50.264;11.918;2022-07-29T05:30:26;6.40;;;3.00;;
40945;SDS011;55635;50.264;11.918;2022-07-29T05:33:07;7.38;;;3.45;;
40945;SDS011;55635;50.264;11.918;2022-07-29T05:35:48;5.97;;;3.28;;
40945;SDS011;55635;50.264;11.918;2022-07-29T05:38:29;6.05;;;3.08;;
40945;SDS011;55635;50.264;11.918;2022-07-29T05:41:10;8.30;;;3.63;;
40945;SDS011;55635;50.264;11.918;2022-07-29T05:43:51;5.80;;;3.40;;
40945;SDS011;55635;50.264;11.918;2022-07-29T05:46:32;9.25;;;3.55;;
40945;SDS011;55635;50.264;11.918;2022-07-29T05:49:13;4.88;;;3.45;;
40945;SDS011;55635;50.264;11.918;2022-07-29T05:51:54;5.80;;;3.75;;
40945;SDS011;55635;50.264;11.918;2022-07-29T05:54:36;6.55;;;3.42;;
40945;SDS011;55635;50.264;11.918;2022-07-29T05:57:18;9.40;;;3.28;;
40945;SDS011;55635;50.264;11.918;2022-07-29T06:00:01;3.92;;;3.08;;
40945;SDS011;55635;50.264;11.918;2022-07-29T06:02:52;9.32;;;3.28;;
40945;SDS011;55635;50.264;11.918;2022-07-29T06:05:33;6.13;;;3.47;;
40945;SDS011;55635;50.264;11.918;2022-07-29T06:08:14;7.25;;;3.35;;
40945;SDS011;55635;50.264;11.918;2022-07-29T06:10:55;4.57;;;3.60;;
40945;SDS011;55635;50.264;11.918;2022-07-29T06:13:36;5.72;;;2.63;;
40945;SDS011;55635;50.264;11.918;2022-07-29T06:16:17;6.18;;;3.60;;
40945;SDS011;55635;50.264;11.918;2022-07-29T06:18:59;8.75;;;3.50;;
40945;SDS011;55635;50.264;11.918;2022-07-29T06:21:43;9.93;;;3.42;;
40945;SDS011;55635;50.264;11.918;2022-07-29T06:24:26;9.77;;;3.63;;
40945;SDS011;55635;50.264;11.918;2022-07-29T06:27:07;9.93;;;3.30;;
40945;SDS011;55635;50.264;11.918;2022-07-29T06:29:48;11.10;;;3.80;;
40945;SDS011;55635;50.264;11.918;2022-07-29T06:32:29;7.22;;;3.65;;
40945;SDS011;55635;50.264;11.918;2022-07-29T06:35:11;7.53;;;2.88;;
40945;SDS011;55635;50.264;11.918;2022-07-29T06:37:52;9.13;;;2.50;;
40945;SDS011;55635;50.264;11.918;2022-07-29T06:40:33;10.13;;;3.22;;
40945;SDS011;55635;50.264;11.918;2022-07-29T06:43:34;5.97;;;3.28;;
40945;SDS011;55635;50.264;11.918;2022-07-29T06:46:18;10.52;;;3.67;;
40945;SDS011;55635;50.264;11.918;2022-07-29T06:49:00;6.20;;;3.40;;
40945;SDS011;55635;50.264;11.918;2022-07-29T06:51:42;8.98;;;3.65;;
40945;SDS011;55635;50.264;11.918;2022-07-29T06:54:23;6.63;;;2.80;;
40945;SDS011;55635;50.264;11.918;2022-07-29T06:57:04;6.72;;;2.95;;
40945;SDS011;55635;50.264;11.918;2022-07-29T06:59:45;7.90;;;2.88;;
40945;SDS011;55635;50.264;11.918;2022-07-29T07:02:26;6.68;;;2.72;;
40945;SDS011;55635;50.264;11.918;2022-07-29T07:05:07;5.43;;;2.55;;
40945;SDS011;55635;50.264;11.918;2022-07-29T07:07:48;3.00;;;2.53;;
40945;SDS011;55635;50.264;11.918;2022-07-29T07:10:29;5.88;;;2.65;;
40945;SDS011;55635;50.264;11.918;2022-07-29T07:13:11;9.10;;;2.72;;
40945;SDS011;55635;50.264;11.918;2022-07-29T07:15:52;12.27;;;3.35;;
40945;SDS011;55635;50.264;11.918;2022-07-29T07:18:33;7.15;;;2.42;;
40945;SDS011;55635;50.264;11.918;2022-07-29T07:21:14;6.18;;;2.58;;
40945;SDS011;55635;50.264;11.918;2022-07-29T07:23:55;4.85;;;2.25;;
40945;SDS011;55635;50.264;11.918;2022-07-29T07:26:36;6.10;;;2.45;;
40945;SDS011;55635;50.264;11.918;2022-07-29T07:29:19;6.60;;;2.58;;
40945;SDS011;55635;50.264;11.918;2022-07-29T07:32:00;5.72;;;2.67;;
40945;SDS011;55635;50.264;11.918;2022-07-29T07:34:42;3.05;;;2.35;;
40945;SDS011;55635;50.264;11.918;2022-07-29T07:37:23;7.93;;;2.95;;
40945;SDS011;55635;50.264;11.918;2022-07-29T07:40:05;4.13;;;2.67;;
40945;SDS011;55635;50.264;11.918;2022-07-29T07:42:48;5.88;;;2.60;;
40945;SDS011;55635;50.264;11.918;2022-07-29T07:45:29;4.63;;;2.60;;
40945;SDS011;55635;50.264;11.918;2022-07-29T07:48:12;7.53;;;3.00;;
40945;SDS011;55635;50.264;11.918;2022-07-29T07:50:53;4.88;;;2.95;;
40945;SDS011;55635;50.264;11.918;2022-07-29T07:53:35;5.05;;;2.63;;
40945;SDS011;55635;50.264;11.918;2022-07-29T07:56:16;7.53;;;3.03;;
40945;SDS011;55635;50.264;11.918;2022-07-29T07:58:57;7.18;;;2.28;;
40945;SDS011;55635;50.264;11.918;2022-07-29T08:01:38;6.50;;;2.40;;
40945;SDS011;55635;50.264;11.918;2022-07-29T08:04:19;5.03;;;2.30;;
40945;SDS011;55635;50.264;11.918;2022-07-29T08:07:01;2.65;;;2.30;;
40945;SDS011;55635;50.264;11.918;2022-07-29T08:09:42;6.68;;;2.40;;
40945;SDS011;55635;50.264;11.918;2022-07-29T08:12:23;3.50;;;2.17;;
40945;SDS011;55635;50.264;11.918;2022-07-29T08:15:04;5.40;;;2.50;;
40945;SDS011;55635;50.264;11.918;2022-07-29T08:17:47;4.43;;;2.50;;
40945;SDS011;55635;50.264;11.918;2022-07-29T08:20:28;4.28;;;2.50;;
40945;SDS011;55635;50.264;11.918;2022-07-29T08:23:10;6.38;;;2.47;;
40945;SDS011;55635;50.264;11.918;2022-07-29T08:25:51;2.40;;;2.20;;
40945;SDS011;55635;50.264;11.918;2022-07-29T08:28:32;3.75;;;2.20;;
40945;SDS011;55635;50.264;11.918;2022-07-29T08:31:13;6.45;;;2.38;;
40945;SDS011;55635;50.264;11.918;2022-07-29T08:33:55;2.88;;;2.15;;
40945;SDS011;55635;50.264;11.918;2022-07-29T08:36:36;2.78;;;2.53;;
40945;SDS011;55635;50.264;11.918;2022-07-29T08:39:17;3.10;;;2.33;;
40945;SDS011;55635;50.264;11.918;2022-07-29T08:41:58;4.32;;;2.70;;
40945;SDS011;55635;50.264;11.918;2022-07-29T08:44:39;5.25;;;2.40;;
40945;SDS011;55635;50.264;11.918;2022-07-29T08:47:20;3.50;;;2.67;;
40945;SDS011;55635;50.264;11.918;2022-07-29T08:50:02;4.03;;;2.42;;
40945;SDS011;55635;50.264;11.918;2022-07-29T08:52:43;3.90;;;2.78;;
40945;SDS011;55635;50.264;11.918;2022-07-29T08:55:24;3.72;;;2.60;;
40945;SDS011;55635;50.264;11.918;2022-07-29T08:58:07;7.22;;;3.35;;
40945;SDS011;55635;50.264;11.918;2022-07-29T09:00:57;3.83;;;3.10;;
40945;SDS011;55635;50.264;11.918;2022-07-29T09:03:43;3.67;;;2.88;;
40945;SDS011;55635;50.264;11.918;2022-07-29T09:06:27;5.03;;;2.83;;
40945;SDS011;55635;50.264;11.918;2022-07-29T09:09:13;3.85;;;2.75;;
40945;SDS011;55635;50.264;11.918;2022-07-29T09:11:55;3.28;;;2.97;;
40945;SDS011;55635;50.264;11.918;2022-07-29T09:14:39;5.85;;;2.92;;
40945;SDS011;55635;50.264;11.918;2022-07-29T09:20:42;4.38;;;2.85;;
40945;SDS011;55635;50.264;11.918;2022-07-29T09:24:07;5.80;;;3.00;;
40945;SDS011;55635;50.264;11.918;2022-07-29T09:26:51;4.38;;;2.92;;
40945;SDS011;55635;50.264;11.918;2022-07-29T09:29:34;6.00;;;3.28;;
40945;SDS011;55635;50.264;11.918;2022-07-29T09:32:15;3.50;;;2.55;;
40945;SDS011;55635;50.264;11.918;2022-07-29T09:38:09;4.70;;;2.97;;
40945;SDS011;55635;50.264;11.918;2022-07-29T09:40:57;4.03;;;2.95;;
40945;SDS011;55635;50.264;11.918;2022-07-29T09:43:40;5.18;;;2.72;;
40945;SDS011;55635;50.264;11.918;2022-07-29T09:46:40;2.80;;;2.60;;
40945;SDS011;55635;50.264;11.918;2022-07-29T09:52:47;3.45;;;3.03;;
40945;SDS011;55635;50.264;11.918;2022-07-29T09:55:30;3.47;;;2.65;;
40945;SDS011;55635;50.264;11.918;2022-07-29T09:58:21;4.88;;;2.83;;
40945;SDS011;55635;50.264;11.918;2022-07-29T10:01:02;3.53;;;2.95;;
40945;SDS011;55635;50.264;11.918;2022-07-29T10:03:53;4.75;;;3.17;;
40945;SDS011;55635;50.264;11.918;2022-07-29T10:06:34;3.15;;;2.95;;
40945;SDS011;55635;50.264;11.918;2022-07-29T10:09:15;2.97;;;2.78;;
40945;SDS011;55635;50.264;11.918;2022-07-29T10:12:07;4.13;;;3.22;;
40945;SDS011;55635;50.264;11.918;2022-07-29T10:14:54;4.82;;;2.92;;
40945;SDS011;55635;50.264;11.918;2022-07-29T10:17:35;4.35;;;2.55;;
40945;SDS011;55635;50.264;11.918;2022-07-29T10:20:17;14.90;;;3.67;;
40945;SDS011;55635;50.264;11.918;2022-07-29T10:22:59;4.65;;;2.97;;
40945;SDS011;55635;50.264;11.918;2022-07-29T10:25:40;3.80;;;3.03;;
40945;SDS011;55635;50.264;11.918;2022-07-29T10:28:21;5.05;;;2.90;;
40945;SDS011;55635;50.264;11.918;2022-07-29T10:31:05;2.42;;;2.22;;
40945;SDS011;55635;50.264;11.918;2022-07-29T10:37:16;3.05;;;2.80;;
40945;SDS011;55635;50.264;11.918;2022-07-29T10:40:32;3.28;;;2.92;;
40945;SDS011;55635;50.264;11.918;2022-07-29T10:43:59;3.80;;;2.65;;
40945;SDS011;55635;50.264;11.918;2022-07-29T10:46:48;3.15;;;2.83;;
40945;SDS011;55635;50.264;11.918;2022-07-29T10:49:31;4.30;;;2.97;;
40945;SDS011;55635;50.264;11.918;2022-07-29T10:52:12;6.97;;;3.35;;
40945;SDS011;55635;50.264;11.918;2022-07-29T10:54:54;3.10;;;2.72;;
40945;SDS011;55635;50.264;11.918;2022-07-29T10:57:38;5.22;;;2.83;;
40945;SDS011;55635;50.264;11.918;2022-07-29T11:00:27;3.63;;;3.17;;
40945;SDS011;55635;50.264;11.918;2022-07-29T11:03:28;3.05;;;2.75;;
40945;SDS011;55635;50.264;11.918;2022-07-29T11:06:25;3.63;;;3.08;;
40945;SDS011;55635;50.264;11.918;2022-07-29T11:09:38;2.92;;;2.72;;
40945;SDS011;55635;50.264;11.918;2022-07-29T11:15:52;4.85;;;3.00;;
40945;SDS011;55635;50.264;11.918;2022-07-29T11:18:34;3.63;;;3.33;;
40945;SDS011;55635;50.264;11.918;2022-07-29T11:21:37;5.43;;;3.33;;
40945;SDS011;55635;50.264;11.918;2022-07-29T11:24:25;3.25;;;2.92;;
40945;SDS011;55635;50.264;11.918;2022-07-29T11:29:58;9.55;;;3.35;;
40945;SDS011;55635;50.264;11.918;2022-07-29T11:32:42;6.05;;;3.10;;
40945;SDS011;55635;50.264;11.918;2022-07-29T11:35:24;3.15;;;2.90;;
40945;SDS011;55635;50.264;11.918;2022-07-29T11:41:24;6.15;;;2.85;;
40945;SDS011;55635;50.264;11.918;2022-07-29T11:44:07;4.35;;;3.08;;
40945;SDS011;55635;50.264;11.918;2022-07-29T11:46:48;3.38;;;3.15;;
40945;SDS011;55635;50.264;11.918;2022-07-29T11:49:31;6.63;;;3.35;;
40945;SDS011;55635;50.264;11.918;2022-07-29T11:52:12;3.38;;;3.03;;
40945;SDS011;55635;50.264;11.918;2022-07-29T11:54:54;6.22;;;3.45;;
40945;SDS011;55635;50.264;11.918;2022-07-29T12:00:37;3.63;;;3.22;;
40945;SDS011;55635;50.264;11.918;2022-07-29T12:03:24;9.27;;;2.97;;
40945;SDS011;55635;50.264;11.918;2022-07-29T12:06:12;3.60;;;3.15;;
40945;SDS011;55635;50.264;11.918;2022-07-29T12:08:54;5.10;;;3.30;;
40945;SDS011;55635;50.264;11.918;2022-07-29T12:11:35;4.00;;;3.45;;
40945;SDS011;55635;50.264;11.918;2022-07-29T12:14:29;4.65;;;3.30;;
40945;SDS011;55635;50.264;11.918;2022-07-29T12:17:28;3.30;;;2.70;;
40945;SDS011;55635;50.264;11.918;2022-07-29T12:20:14;4.93;;;3.15;;
40945;SDS011;55635;50.264;11.918;2022-07-29T12:23:05;4.00;;;3.05;;
40945;SDS011;55635;50.264;11.918;2022-07-29T12:25:49;4.15;;;3.30;;
40945;SDS011;55635;50.264;11.918;2022-07-29T12:28:30;3.50;;;3.20;;
40945;SDS011;55635;50.264;11.918;2022-07-29T12:31:17;3.55;;;3.20;;
40945;SDS011;55635;50.264;11.918;2022-07-29T12:33:58;4.03;;;3.00;;
40945;SDS011;55635;50.264;11.918;2022-07-29T12:36:40;5.68;;;3.17;;
40945;SDS011;55635;50.264;11.918;2022-07-29T12:39:22;9.98;;;2.15;;
40945;SDS011;55635;50.264;11.918;2022-07-29T12:42:13;2.95;;;2.10;;
40945;SDS011;55635;50.264;11.918;2022-07-29T12:44:55;5.20;;;2.58;;
40945;SDS011;55635;50.264;11.918;2022-07-29T12:47:51;4.07;;;2.70;;
40945;SDS011;55635;50.264;11.918;2022-07-29T12:50:33;4.30;;;2.90;;
40945;SDS011;55635;50.264;11.918;2022-07-29T12:53:16;4.35;;;3.30;;
40945;SDS011;55635;50.264;11.918;2022-07-29T12:55:57;5.57;;;3.33;;
40945;SDS011;55635;50.264;11.918;2022-07-29T12:58:41;6.88;;;3.58;;
40945;SDS011;55635;50.264;11.918;2022-07-29T13:01:22;6.93;;;3.95;;
40945;SDS011;55635;50.264;11.918;2022-07-29T13:04:03;8.15;;;4.63;;
40945;SDS011;55635;50.264;11.918;2022-07-29T13:06:45;7.25;;;3.90;;
40945;SDS011;55635;50.264;11.918;2022-07-29T13:09:35;5.47;;;3.28;;
40945;SDS011;55635;50.264;11.918;2022-07-29T13:12:21;6.03;;;3.30;;
40945;SDS011;55635;50.264;11.918;2022-07-29T13:15:12;3.38;;;3.10;;
40945;SDS011;55635;50.264;11.918;2022-07-29T13:17:55;5.43;;;3.25;;
40945;SDS011;55635;50.264;11.918;2022-07-29T13:20:36;4.05;;;3.30;;
40945;SDS011;55635;50.264;11.918;2022-07-29T13:23:17;3.28;;;2.95;;
40945;SDS011;55635;50.264;11.918;2022-07-29T13:26:04;4.05;;;3.03;;
40945;SDS011;55635;50.264;11.918;2022-07-29T13:28:47;3.97;;;2.70;;
40945;SDS011;55635;50.264;11.918;2022-07-29T13:31:28;2.88;;;2.60;;
40945;SDS011;55635;50.264;11.918;2022-07-29T13:34:10;5.97;;;3.17;;
40945;SDS011;55635;50.264;11.918;2022-07-29T13:36:51;3.88;;;3.00;;
40945;SDS011;55635;50.264;11.918;2022-07-29T13:39:32;4.35;;;3.28;;
40945;SDS011;55635;50.264;11.918;2022-07-29T13:42:17;4.90;;;4.22;;
40945;SDS011;55635;50.264;11.918;2022-07-29T13:44:59;8.05;;;5.47;;
40945;SDS011;55635;50.264;11.918;2022-07-29T13:47:40;8.57;;;5.07;;
40945;SDS011;55635;50.264;11.918;2022-07-29T13:50:21;7.00;;;4.72;;
40945;SDS011;55635;50.264;11.918;2022-07-29T13:53:03;3.85;;;3.30;;
40945;SDS011;55635;50.264;11.918;2022-07-29T13:55:44;5.85;;;3.95;;
40945;SDS011;55635;50.264;11.918;2022-07-29T13:58:25;9.25;;;3.42;;
40945;SDS011;55635;50.264;11.918;2022-07-29T14:01:06;5.03;;;3.42;;
40945;SDS011;55635;50.264;11.918;2022-07-29T14:03:47;4.65;;;4.00;;
40945;SDS011;55635;50.264;11.918;2022-07-29T14:06:28;4.07;;;3.67;;
40945;SDS011;55635;50.264;11.918;2022-07-29T14:09:09;4.88;;;3.28;;
40945;SDS011;55635;50.264;11.918;2022-07-29T14:11:50;4.30;;;4.00;;
40945;SDS011;55635;50.264;11.918;2022-07-29T14:14:32;4.40;;;4.00;;
40945;SDS011;55635;50.264;11.918;2022-07-29T14:17:15;5.72;;;4.15;;
40945;SDS011;55635;50.264;11.918;2022-07-29T14:19:57;4.90;;;3.97;;
40945;SDS011;55635;50.264;11.918;2022-07-29T14:22:38;6.35;;;4.25;;
40945;SDS011;55635;50.264;11.918;2022-07-29T14:25:19;4.28;;;3.88;;
40945;SDS011;55635;50.264;11.918;2022-07-29T14:28:00;9.15;;;4.75;;
40945;SDS011;55635;50.264;11.918;2022-07-29T14:30:41;8.05;;;4.97;;
40945;SDS011;55635;50.264;11.918;2022-07-29T14:33:22;8.35;;;4.47;;
40945;SDS011;55635;50.264;11.918;2022-07-29T14:36:03;7.13;;;5.30;;
40945;SDS011;55635;50.264;11.918;2022-07-29T14:38:44;7.55;;;4.50;;
40945;SDS011;55635;50.264;11.918;2022-07-29T14:41:25;5.32;;;4.03;;
40945;SDS011;55635;50.264;11.918;2022-07-29T14:44:08;4.95;;;4.55;;
40945;SDS011;55635;50.264;11.918;2022-07-29T14:46:49;6.90;;;4.32;;
40945;SDS011;55635;50.264;11.918;2022-07-29T14:49:30;5.40;;;4.03;;
40945;SDS011;55635;50.264;11.918;2022-07-29T14:52:11;6.95;;;5.10;;
40945;SDS011;55635;50.264;11.918;2022-07-29T14:54:53;4.95;;;4.32;;
40945;SDS011;55635;50.264;11.918;2022-07-29T14:57:34;4.15;;;3.55;;
40945;SDS011;55635;50.264;11.918;2022-07-29T15:00:16;4.60;;;4.20;;
40945;SDS011;55635;50.264;11.918;2022-07-29T15:02:58;3.70;;;3.40;;
40945;SDS011;55635;50.264;11.918;2022-07-29T15:05:40;4.10;;;3.20;;
40945;SDS011;55635;50.264;11.918;2022-07-29T15:08:21;5.25;;;2.72;;
40945;SDS011;55635;50.264;11.918;2022-07-29T15:11:03;2.20;;;2.10;;
40945;SDS011;55635;50.264;11.918;2022-07-29T15:13:44;2.95;;;2.70;;
40945;SDS011;55635;50.264;11.918;2022-07-29T15:16:25;2.92;;;2.40;;
40945;SDS011;55635;50.264;11.918;2022-07-29T15:19:06;3.20;;;2.28;;
40945;SDS011;55635;50.264;11.918;2022-07-29T15:21:47;3.75;;;2.72;;
40945;SDS011;55635;50.264;11.918;2022-07-29T15:24:28;2.70;;;2.33;;
40945;SDS011;55635;50.264;11.918;2022-07-29T15:27:09;2.90;;;2.58;;
40945;SDS011;55635;50.264;11.918;2022-07-29T15:29:54;3.47;;;2.83;;
40945;SDS011;55635;50.264;11.918;2022-07-29T15:32:35;3.28;;;2.90;;
40945;SDS011;55635;50.264;11.918;2022-07-29T15:35:16;4.60;;;3.15;;
40945;SDS011;55635;50.264;11.918;2022-07-29T15:37:57;4.80;;;3.17;;
40945;SDS011;55635;50.264;11.918;2022-07-29T15:40:38;4.53;;;3.58;;
40945;SDS011;55635;50.264;11.918;2022-07-29T15:43:23;4.50;;;3.70;;
40945;SDS011;55635;50.264;11.918;2022-07-29T15:46:04;3.83;;;3.47;;
40945;SDS011;55635;50.264;11.918;2022-07-29T15:49:05;5.25;;;3.97;;
40945;SDS011;55635;50.264;11.918;2022-07-29T15:51:47;4.18;;;3.58;;
40945;SDS011;55635;50.264;11.918;2022-07-29T15:54:28;4.63;;;3.55;;
40945;SDS011;55635;50.264;11.918;2022-07-29T15:57:09;4.55;;;4.15;;
40945;SDS011;55635;50.264;11.918;2022-07-29T15:59:50;4.35;;;3.92;;
40945;SDS011;55635;50.264;11.918;2022-07-29T16:02:32;4.88;;;4.43;;
40945;SDS011;55635;50.264;11.918;2022-07-29T16:05:13;5.95;;;3.75;;
40945;SDS011;55635;50.264;11.918;2022-07-29T16:07:54;3.80;;;3.50;;
40945;SDS011;55635;50.264;11.918;2022-07-29T16:10:35;4.32;;;3.95;;
40945;SDS011;55635;50.264;11.918;2022-07-29T16:13:16;5.13;;;4.00;;
40945;SDS011;55635;50.264;11.918;2022-07-29T16:15:57;7.80;;;3.85;;
40945;SDS011;55635;50.264;11.918;2022-07-29T16:18:38;6.75;;;4.18;;
40945;SDS011;55635;50.264;11.918;2022-07-29T16:21:19;4.35;;;3.90;;
40945;SDS011;55635;50.264;11.918;2022-07-29T16:24:02;3.83;;;3.53;;
40945;SDS011;55635;50.264;11.918;2022-07-29T16:26:45;3.60;;;3.22;;
40945;SDS011;55635;50.264;11.918;2022-07-29T16:29:26;5.45;;;3.08;;
40945;SDS011;55635;50.264;11.918;2022-07-29T16:32:08;3.75;;;3.33;;
40945;SDS011;55635;50.264;11.918;2022-07-29T16:34:49;3.70;;;3.45;;
40945;SDS011;55635;50.264;11.918;2022-07-29T16:37:30;5.30;;;4.15;;
40945;SDS011;55635;50.264;11.918;2022-07-29T16:40:14;4.50;;;4.13;;